createdAt,value
2022-10-20T00:01:21.371Z,8.30
2022-10-20T00:03:50.170Z,7.80
2022-10-20T00:06:23.265Z,7.72
2022-10-20T00:08:51.677Z,7.53
2022-10-20T00:11:21.730Z,7.55
2022-10-20T00:13:51.441Z,7.55
2022-10-20T00:16:19.836Z,7.43
2022-10-20T00:18:48.082Z,8.27
2022-10-20T00:21:18.769Z,7.90
2022-10-20T00:23:48.190Z,8.85
2022-10-20T00:26:18.860Z,8.00
2022-10-20T00:28:47.172Z,8.70
2022-10-20T00:31:15.948Z,7.07
2022-10-20T00:33:43.881Z,8.68
2022-10-20T00:36:15.667Z,8.25
2022-10-20T00:38:43.887Z,8.82
2022-10-20T00:41:14.903Z,7.85
2022-10-20T00:43:48.229Z,7.63
2022-10-20T00:46:18.462Z,7.90
2022-10-20T00:48:50.099Z,8.77
2022-10-20T00:51:22.065Z,7.53
2022-10-20T00:53:52.021Z,7.95
2022-10-20T00:56:22.216Z,8.07
2022-10-20T00:58:51.311Z,8.98
2022-10-20T01:01:20.080Z,8.82
2022-10-20T01:03:50.372Z,7.63
2022-10-20T01:06:21.258Z,8.15
2022-10-20T01:08:49.689Z,7.60
2022-10-20T01:11:24.636Z,9.20
2022-10-20T01:14:08.654Z,7.20
2022-10-20T01:16:46.407Z,7.90
2022-10-20T01:19:44.601Z,7.43
2022-10-20T01:22:37.850Z,7.13
2022-10-20T01:25:18.278Z,7.13
2022-10-20T01:27:49.264Z,8.55
2022-10-20T01:30:21.025Z,8.75
2022-10-20T01:32:57.956Z,9.45
2022-10-20T01:35:36.023Z,8.60
2022-10-20T01:38:13.877Z,8.70
2022-10-20T01:40:49.092Z,9.20
2022-10-20T01:43:22.174Z,8.75
2022-10-20T01:45:51.625Z,8.95
2022-10-20T01:48:23.431Z,8.63
2022-10-20T01:50:52.155Z,8.55
2022-10-20T01:53:20.964Z,9.15
2022-10-20T01:55:52.924Z,8.88
2022-10-20T01:58:50.117Z,7.60
2022-10-20T02:01:27.217Z,9.00
2022-10-20T02:03:59.074Z,9.07
2022-10-20T02:06:36.112Z,8.40
2022-10-20T02:09:08.097Z,9.18
2022-10-20T02:11:44.501Z,9.75
2022-10-20T02:14:16.736Z,8.55
2022-10-20T02:16:48.403Z,8.57
2022-10-20T02:19:20.933Z,9.00
2022-10-20T02:24:20.055Z,8.27
2022-10-20T02:26:48.159Z,9.60
2022-10-20T02:29:20.818Z,8.77
2022-10-20T02:31:49.313Z,9.40
2022-10-20T02:34:17.555Z,8.48
2022-10-20T02:36:45.494Z,8.10
2022-10-20T02:39:13.611Z,10.27
2022-10-20T02:41:41.550Z,9.73
2022-10-20T02:44:09.445Z,9.13
2022-10-20T02:46:38.803Z,9.10
2022-10-20T02:49:06.692Z,9.02
2022-10-20T02:51:34.554Z,10.02
2022-10-20T02:54:02.501Z,9.48
2022-10-20T02:56:31.121Z,10.68
2022-10-20T02:58:59.381Z,9.07
2022-10-20T03:01:27.516Z,9.82
2022-10-20T03:03:59.632Z,8.80
2022-10-20T03:06:27.790Z,9.65
2022-10-20T03:08:55.766Z,8.25
2022-10-20T03:11:23.972Z,8.13
2022-10-20T03:13:52.057Z,10.27
2022-10-20T03:16:20.136Z,9.02
2022-10-20T03:18:48.061Z,8.65
2022-10-20T03:21:17.409Z,9.70
2022-10-20T03:23:45.344Z,9.05
2022-10-20T03:26:14.004Z,10.60
2022-10-20T03:28:42.285Z,9.13
2022-10-20T03:31:10.892Z,10.27
2022-10-20T03:33:38.889Z,9.75
2022-10-20T03:36:07.460Z,9.40
2022-10-20T03:38:36.867Z,10.02
2022-10-20T03:41:04.907Z,11.38
2022-10-20T03:43:32.800Z,10.07
2022-10-20T03:46:04.897Z,10.45
2022-10-20T03:48:32.766Z,9.63
2022-10-20T03:51:01.383Z,9.88
2022-10-20T03:53:29.523Z,10.48
2022-10-20T03:55:59.161Z,11.85
2022-10-20T03:58:27.044Z,10.35
2022-10-20T04:00:55.962Z,10.20
2022-10-20T04:03:23.825Z,9.63
2022-10-20T04:05:51.776Z,8.50
2022-10-20T04:08:19.724Z,8.57
2022-10-20T04:10:47.664Z,9.50
2022-10-20T04:13:16.902Z,9.25
2022-10-20T04:15:44.794Z,9.73
2022-10-20T04:18:12.753Z,8.50
2022-10-20T04:20:43.654Z,9.30
2022-10-20T04:23:12.911Z,8.07
2022-10-20T04:25:45.376Z,9.63
2022-10-20T04:30:43.548Z,8.13
2022-10-20T04:33:11.835Z,8.75
2022-10-20T04:35:40.247Z,8.65
2022-10-20T04:38:11.629Z,7.80
2022-10-20T04:40:39.546Z,8.35
2022-10-20T04:43:07.491Z,9.00
2022-10-20T04:45:35.422Z,9.38
2022-10-20T04:48:05.939Z,8.52
2022-10-20T04:50:33.892Z,9.27
2022-10-20T04:53:01.997Z,9.60
2022-10-20T04:55:29.993Z,7.78
2022-10-20T04:57:57.925Z,8.77
2022-10-20T05:00:25.816Z,8.43
2022-10-20T05:02:53.804Z,9.20
2022-10-20T05:05:23.091Z,7.88
2022-10-20T05:07:50.970Z,9.50
2022-10-20T05:10:20.724Z,9.10
2022-10-20T05:12:48.727Z,8.23
2022-10-20T05:15:16.940Z,7.88
2022-10-20T05:17:44.864Z,7.05
2022-10-20T05:20:12.832Z,8.57
2022-10-20T05:22:42.131Z,7.93
2022-10-20T05:25:35.108Z,6.85
2022-10-20T05:27:59.264Z,7.53
2022-10-20T05:30:27.222Z,7.03
2022-10-20T05:32:58.244Z,7.90
2022-10-20T05:35:26.305Z,7.68
2022-10-20T05:37:55.608Z,8.07
2022-10-20T05:40:23.888Z,8.68
2022-10-20T05:42:51.809Z,8.25
2022-10-20T05:45:19.749Z,7.55
2022-10-20T05:47:47.753Z,7.78
2022-10-20T05:50:21.692Z,8.55
2022-10-20T05:52:49.628Z,7.20
2022-10-20T05:55:19.198Z,7.60
2022-10-20T05:57:51.756Z,7.57
2022-10-20T06:02:57.804Z,6.13
2022-10-20T06:05:25.889Z,7.13
2022-10-20T06:07:55.150Z,7.35
2022-10-20T06:10:24.584Z,7.18
2022-10-20T06:12:54.708Z,7.90
2022-10-20T06:15:22.592Z,6.80
2022-10-20T06:17:51.739Z,7.05
2022-10-20T06:20:19.666Z,7.88
2022-10-20T06:22:47.518Z,6.97
2022-10-20T06:25:15.661Z,5.93
2022-10-20T06:27:44.964Z,7.53
2022-10-20T06:30:13.468Z,6.85
2022-10-20T06:32:41.393Z,8.23
2022-10-20T06:35:11.564Z,7.60
2022-10-20T06:37:39.478Z,8.45
2022-10-20T06:40:08.347Z,7.30
2022-10-20T06:42:36.532Z,7.22
2022-10-20T06:45:07.249Z,6.78
2022-10-20T06:47:35.451Z,7.70
2022-10-20T06:50:06.066Z,9.23
2022-10-20T06:52:34.293Z,7.15
2022-10-20T06:55:02.516Z,8.13
2022-10-20T06:57:32.147Z,7.20
2022-10-20T07:00:00.102Z,7.18
2022-10-20T07:02:31.205Z,6.53
2022-10-20T07:04:59.180Z,6.97
2022-10-20T07:07:27.254Z,7.30
2022-10-20T07:09:56.862Z,6.35
2022-10-20T07:12:25.248Z,6.78
2022-10-20T07:14:53.167Z,6.13
2022-10-20T07:17:22.718Z,6.63
2022-10-20T07:19:53.100Z,6.57
2022-10-20T07:22:21.008Z,6.57
2022-10-20T07:24:49.031Z,6.43
2022-10-20T07:27:17.084Z,7.82
2022-10-20T07:29:45.119Z,6.25
2022-10-20T07:32:13.085Z,6.65
2022-10-20T07:34:41.113Z,6.55
2022-10-20T07:37:10.431Z,7.60
2022-10-20T07:39:40.030Z,7.53
2022-10-20T07:42:08.011Z,7.35
2022-10-20T07:44:37.131Z,6.70
2022-10-20T07:47:07.664Z,7.93
2022-10-20T07:49:44.262Z,8.75
2022-10-20T07:52:16.398Z,7.13
2022-10-20T07:54:44.452Z,8.40
2022-10-20T07:57:12.633Z,6.47
2022-10-20T07:59:40.703Z,6.78
2022-10-20T08:02:08.721Z,6.88
2022-10-20T08:04:39.256Z,7.18
2022-10-20T08:07:07.139Z,7.32
2022-10-20T08:09:36.440Z,7.18
2022-10-20T08:12:04.881Z,8.40
2022-10-20T08:14:35.038Z,6.78
2022-10-20T08:17:06.739Z,7.18
2022-10-20T08:22:25.490Z,6.32
2022-10-20T08:24:55.083Z,7.22
2022-10-20T08:27:25.031Z,6.78
2022-10-20T08:30:00.178Z,7.55
2022-10-20T08:32:40.487Z,6.88
2022-10-20T08:35:09.080Z,6.88
2022-10-20T08:37:37.648Z,6.93
2022-10-20T08:40:08.369Z,6.65
2022-10-20T08:42:40.981Z,6.72
2022-10-20T08:45:15.357Z,7.45
2022-10-20T08:47:45.078Z,7.13
2022-10-20T08:50:16.656Z,7.15
2022-10-20T08:52:46.326Z,6.93
2022-10-20T08:55:23.766Z,7.25
2022-10-20T08:57:53.858Z,7.25
2022-10-20T09:00:24.114Z,6.82
2022-10-20T09:02:54.186Z,6.55
2022-10-20T09:05:25.445Z,7.40
2022-10-20T09:07:53.674Z,6.80
2022-10-20T09:10:32.399Z,6.90
2022-10-20T09:13:01.252Z,7.47
2022-10-20T09:15:30.268Z,8.95
2022-10-20T09:18:01.838Z,8.00
2022-10-20T09:20:34.822Z,8.40
2022-10-20T09:23:07.775Z,7.53
2022-10-20T09:25:43.184Z,8.18
2022-10-20T09:28:21.746Z,8.75
2022-10-20T09:30:49.894Z,7.20
2022-10-20T09:33:30.637Z,6.95
2022-10-20T09:36:05.138Z,7.13
2022-10-20T09:38:38.088Z,7.43
2022-10-20T09:41:15.368Z,7.45
2022-10-20T09:43:58.257Z,6.97
2022-10-20T09:46:30.338Z,6.90
2022-10-20T09:48:59.020Z,6.75
2022-10-20T09:51:30.176Z,8.02
2022-10-20T09:54:03.490Z,6.60
2022-10-20T09:56:36.570Z,7.47
2022-10-20T09:59:08.248Z,7.30
2022-10-20T10:01:52.927Z,6.88
2022-10-20T10:04:33.075Z,7.30
2022-10-20T10:07:01.179Z,6.35
2022-10-20T10:09:34.568Z,7.05
2022-10-20T10:12:07.020Z,7.20
2022-10-20T10:14:37.381Z,6.97
2022-10-20T10:17:05.487Z,6.95
2022-10-20T10:19:35.597Z,7.18
2022-10-20T10:22:04.667Z,6.65
2022-10-20T10:24:42.009Z,7.10
2022-10-20T10:27:26.378Z,7.53
2022-10-20T10:29:54.821Z,7.07
2022-10-20T10:32:26.452Z,6.53
2022-10-20T10:35:13.644Z,6.97
2022-10-20T10:37:44.138Z,6.45
2022-10-20T10:40:18.357Z,6.32
2022-10-20T10:43:14.384Z,7.68
2022-10-20T10:45:46.708Z,5.95
2022-10-20T10:51:03.472Z,5.03
2022-10-20T10:53:49.162Z,4.75
2022-10-20T10:56:29.603Z,5.45
2022-10-20T10:59:05.491Z,5.47
2022-10-20T11:01:56.622Z,5.35
2022-10-20T11:04:49.996Z,5.13
2022-10-20T11:07:30.295Z,5.05
2022-10-20T11:10:05.878Z,4.68
2022-10-20T11:12:46.980Z,4.40
2022-10-20T11:15:30.269Z,5.18
2022-10-20T11:18:08.436Z,4.45
2022-10-20T11:20:43.858Z,4.75
2022-10-20T11:23:40.544Z,4.55
2022-10-20T11:26:18.639Z,4.43
2022-10-20T11:28:50.017Z,4.55
2022-10-20T11:31:25.534Z,4.72
2022-10-20T11:34:01.035Z,4.93
2022-10-20T11:36:36.167Z,4.57
2022-10-20T11:39:06.724Z,4.75
2022-10-20T11:41:43.126Z,5.10
2022-10-20T11:44:16.776Z,5.10
2022-10-20T11:46:50.023Z,4.97
2022-10-20T11:49:19.256Z,4.93
2022-10-20T11:52:16.886Z,5.28
2022-10-20T11:55:06.037Z,5.10
2022-10-20T11:57:45.748Z,4.75
2022-10-20T12:00:27.889Z,5.00
2022-10-20T12:03:33.114Z,4.93
2022-10-20T12:06:28.723Z,4.85
2022-10-20T12:09:38.482Z,4.47
2022-10-20T12:12:14.765Z,4.28
2022-10-20T12:14:45.758Z,5.07
2022-10-20T12:17:42.215Z,4.55
2022-10-20T12:21:01.905Z,4.63
2022-10-20T12:24:07.652Z,4.57
2022-10-20T12:27:08.188Z,4.68
2022-10-20T12:30:02.386Z,4.25
2022-10-20T12:32:54.022Z,6.30
2022-10-20T12:36:00.711Z,4.93
2022-10-20T12:38:30.322Z,5.15
2022-10-20T12:41:03.290Z,4.80
2022-10-20T12:43:49.357Z,4.53
2022-10-20T12:46:22.263Z,5.18
2022-10-20T12:48:57.372Z,5.40
2022-10-20T12:51:36.072Z,4.25
2022-10-20T12:54:09.276Z,4.82
2022-10-20T12:56:41.992Z,4.78
2022-10-20T12:59:39.318Z,4.60
2022-10-20T13:02:51.363Z,4.55
2022-10-20T13:05:42.221Z,4.50
2022-10-20T13:08:29.000Z,4.90
2022-10-20T13:10:57.938Z,4.82
2022-10-20T13:13:45.047Z,5.47
2022-10-20T13:16:19.497Z,4.50
2022-10-20T13:18:51.551Z,5.13
2022-10-20T13:21:26.841Z,4.72
2022-10-20T13:23:59.987Z,5.32
2022-10-20T13:26:30.634Z,5.72
2022-10-20T13:29:01.930Z,5.53
2022-10-20T13:31:33.910Z,5.20
2022-10-20T13:34:11.719Z,6.03
2022-10-20T13:36:53.722Z,6.10
2022-10-20T13:39:28.779Z,4.97
2022-10-20T13:42:06.622Z,6.55
2022-10-20T13:44:46.986Z,5.75
2022-10-20T13:47:38.816Z,5.55
2022-10-20T13:50:12.309Z,5.95
2022-10-20T13:52:44.688Z,5.38
2022-10-20T13:55:18.636Z,6.47
2022-10-20T13:57:55.501Z,5.82
2022-10-20T14:00:28.925Z,5.85
2022-10-20T14:02:59.813Z,6.38
2022-10-20T14:05:29.621Z,6.03
2022-10-20T14:08:03.248Z,5.72
2022-10-20T14:10:40.850Z,6.70
2022-10-20T14:13:11.354Z,5.20
2022-10-20T14:15:41.428Z,5.72
2022-10-20T14:18:24.201Z,7.18
2022-10-20T14:20:57.488Z,6.45
2022-10-20T14:23:26.025Z,7.90
2022-10-20T14:25:58.030Z,6.03
2022-10-20T14:28:29.299Z,6.65
2022-10-20T14:30:58.675Z,7.07
2022-10-20T14:33:27.251Z,6.03
2022-10-20T14:36:02.542Z,6.55
2022-10-20T14:38:34.560Z,6.22
2022-10-20T14:41:02.978Z,6.60
2022-10-20T14:43:39.027Z,5.60
2022-10-20T14:46:09.873Z,5.47
2022-10-20T14:48:42.835Z,5.95
2022-10-20T14:51:30.671Z,6.40
2022-10-20T14:54:20.317Z,6.13
2022-10-20T14:56:50.437Z,6.28
2022-10-20T14:59:20.221Z,5.97
2022-10-20T15:02:01.631Z,6.82
2022-10-20T15:04:33.460Z,5.90
2022-10-20T15:07:06.879Z,6.45
2022-10-20T15:09:40.881Z,6.95
2022-10-20T15:12:15.028Z,7.20
2022-10-20T15:14:46.043Z,5.47
2022-10-20T15:17:37.579Z,6.28
2022-10-20T15:20:35.451Z,6.05
2022-10-20T15:23:05.308Z,6.47
2022-10-20T15:25:40.225Z,5.65
2022-10-20T15:28:15.590Z,6.10
2022-10-20T15:30:43.563Z,6.28
2022-10-20T15:33:13.163Z,6.15
2022-10-20T15:35:44.759Z,6.55
2022-10-20T15:38:12.723Z,6.90
2022-10-20T15:40:40.760Z,6.20
2022-10-20T15:43:12.619Z,6.50
2022-10-20T15:45:44.192Z,6.70
2022-10-20T15:48:13.453Z,6.13
2022-10-20T15:50:42.220Z,5.93
2022-10-20T15:53:11.900Z,5.90
2022-10-20T15:55:42.133Z,6.13
2022-10-20T15:58:10.219Z,6.50
2022-10-20T16:00:38.474Z,8.07
2022-10-20T16:03:07.027Z,7.43
2022-10-20T16:05:36.366Z,7.45
2022-10-20T16:08:04.416Z,7.78
2022-10-20T16:10:32.436Z,7.93
2022-10-20T16:13:00.444Z,9.10
2022-10-20T16:15:30.475Z,7.68
2022-10-20T16:17:59.330Z,7.47
2022-10-20T16:20:27.278Z,9.63
2022-10-20T16:22:56.578Z,8.68
2022-10-20T16:25:24.572Z,9.13
2022-10-20T16:27:53.437Z,8.20
2022-10-20T16:30:21.520Z,9.80
2022-10-20T16:32:51.869Z,8.43
2022-10-20T16:35:19.852Z,8.07
2022-10-20T16:37:47.924Z,9.20
2022-10-20T16:40:17.435Z,9.27
2022-10-20T16:42:48.150Z,8.68
2022-10-20T16:45:16.300Z,9.43
2022-10-20T16:47:44.229Z,8.13
2022-10-20T16:50:12.610Z,10.15
2022-10-20T16:52:40.553Z,9.10
2022-10-20T16:55:09.331Z,9.02
2022-10-20T16:57:39.786Z,9.00
2022-10-20T17:00:10.012Z,10.05
2022-10-20T17:02:38.730Z,10.45
2022-10-20T17:05:09.366Z,9.57
2022-10-20T17:07:38.548Z,10.70
2022-10-20T17:10:07.873Z,11.13
2022-10-20T17:12:35.835Z,10.38
2022-10-20T17:15:05.812Z,10.50
2022-10-20T17:17:33.824Z,11.63
2022-10-20T17:20:01.779Z,12.15
2022-10-20T17:22:29.682Z,10.32
2022-10-20T17:25:00.058Z,11.35
2022-10-20T17:27:32.495Z,12.27
2022-10-20T17:32:29.527Z,9.80
2022-10-20T17:34:57.467Z,11.65
2022-10-20T17:37:25.472Z,10.77
2022-10-20T17:39:53.466Z,10.68
2022-10-20T17:42:21.481Z,9.88
2022-10-20T17:44:49.448Z,10.23
2022-10-20T17:47:17.344Z,11.18
2022-10-20T17:49:46.631Z,11.93
2022-10-20T17:52:14.544Z,11.50
2022-10-20T17:54:42.856Z,11.32
2022-10-20T17:57:10.844Z,11.43
2022-10-20T17:59:52.412Z,10.40
2022-10-20T18:02:25.546Z,11.15
2022-10-20T18:04:54.881Z,11.82
2022-10-20T18:07:22.819Z,11.32
2022-10-20T18:09:50.797Z,10.73
2022-10-20T18:12:18.798Z,10.73
2022-10-20T18:14:46.785Z,11.68
2022-10-20T18:17:14.795Z,10.75
2022-10-20T18:19:42.938Z,8.35
2022-10-20T18:22:12.233Z,10.05
2022-10-20T18:24:40.346Z,10.55
2022-10-20T18:27:08.266Z,9.27
2022-10-20T18:29:36.183Z,9.00
2022-10-20T18:32:04.286Z,10.38
2022-10-20T18:34:32.266Z,9.38
2022-10-20T18:37:03.369Z,9.38
2022-10-20T18:39:32.772Z,8.73
2022-10-20T18:42:00.927Z,9.60
2022-10-20T18:47:03.453Z,9.10
2022-10-20T18:49:31.398Z,9.23
2022-10-20T18:51:59.548Z,9.48
2022-10-20T18:54:28.191Z,9.98
2022-10-20T18:57:00.456Z,9.57
2022-10-20T18:59:28.634Z,10.70
2022-10-20T19:01:56.612Z,9.82
2022-10-20T19:04:24.586Z,9.05
2022-10-20T19:06:53.228Z,9.20
2022-10-20T19:09:23.891Z,8.30
2022-10-20T19:11:52.020Z,9.00
2022-10-20T19:14:21.332Z,9.70
2022-10-20T19:16:50.151Z,8.93
2022-10-20T19:19:18.161Z,9.27
2022-10-20T19:21:46.599Z,9.13
2022-10-20T19:24:19.635Z,9.55
2022-10-20T19:26:57.041Z,7.75
2022-10-20T19:32:01.590Z,8.07
2022-10-20T19:34:32.229Z,9.02
2022-10-20T19:37:00.270Z,9.70
2022-10-20T19:39:35.887Z,9.93
2022-10-20T19:42:05.239Z,9.00
2022-10-20T19:44:37.840Z,9.95
2022-10-20T19:47:06.342Z,9.45
2022-10-20T19:49:37.601Z,10.52
2022-10-20T19:52:06.126Z,9.18
2022-10-20T19:54:34.421Z,9.40
2022-10-20T19:57:03.447Z,11.05
2022-10-20T19:59:31.564Z,9.57
2022-10-20T20:02:00.857Z,9.25
2022-10-20T20:04:28.794Z,8.50
2022-10-20T20:07:01.687Z,9.10
2022-10-20T20:09:30.583Z,9.50
2022-10-20T20:11:58.566Z,10.32
2022-10-20T20:14:26.659Z,10.27
2022-10-20T20:16:57.597Z,7.95
2022-10-20T20:19:26.970Z,9.48
2022-10-20T20:21:54.939Z,9.88
2022-10-20T20:24:22.887Z,11.15
2022-10-20T20:26:53.643Z,8.48
2022-10-20T20:29:21.635Z,8.65
2022-10-20T20:31:50.143Z,9.23
2022-10-20T20:34:18.238Z,10.57
2022-10-20T20:36:47.609Z,9.93
2022-10-20T20:39:15.673Z,10.48
2022-10-20T20:41:43.919Z,9.35
2022-10-20T20:44:14.058Z,10.05
2022-10-20T20:46:42.116Z,10.38
2022-10-20T20:49:11.482Z,9.10
2022-10-20T20:51:39.381Z,9.20
2022-10-20T20:54:10.168Z,9.77
2022-10-20T20:56:38.318Z,10.98
2022-10-20T20:59:06.231Z,10.27
2022-10-20T21:01:34.204Z,9.82
2022-10-20T21:04:06.015Z,11.00
2022-10-20T21:06:56.528Z,9.80
2022-10-20T21:09:25.342Z,10.55
2022-10-20T21:11:53.259Z,11.13
2022-10-20T21:14:21.212Z,11.45
2022-10-20T21:16:49.677Z,11.48
2022-10-20T21:19:17.815Z,9.80
2022-10-20T21:21:50.541Z,11.27
2022-10-20T21:24:19.233Z,11.32
2022-10-20T21:26:48.743Z,11.55
2022-10-20T21:29:16.835Z,10.07
2022-10-20T21:31:44.833Z,10.43
2022-10-20T21:34:13.291Z,10.80
2022-10-20T21:36:41.282Z,10.25
2022-10-20T21:39:12.224Z,9.68
2022-10-20T21:41:40.306Z,11.10
2022-10-20T21:44:10.544Z,11.13
2022-10-20T21:46:41.901Z,10.50
2022-10-20T21:49:13.739Z,10.70
2022-10-20T21:51:44.108Z,9.50
2022-10-20T21:54:14.356Z,9.35
2022-10-20T21:56:44.302Z,9.48
2022-10-20T21:59:17.949Z,8.13
2022-10-20T22:01:49.004Z,9.55
2022-10-20T22:04:17.979Z,9.05
2022-10-20T22:06:45.896Z,9.77
2022-10-20T22:09:14.946Z,7.80
2022-10-20T22:11:44.896Z,8.32
2022-10-20T22:14:15.578Z,8.02
2022-10-20T22:16:47.298Z,7.70
2022-10-20T22:19:17.166Z,8.20
2022-10-20T22:21:46.633Z,7.53
2022-10-20T22:24:15.449Z,7.85
2022-10-20T22:26:43.706Z,7.57
2022-10-20T22:29:14.995Z,7.28
2022-10-20T22:31:44.376Z,8.30
2022-10-20T22:34:12.569Z,7.85
2022-10-20T22:36:40.816Z,9.07
2022-10-20T22:39:09.394Z,8.52
2022-10-20T22:41:39.339Z,9.20
2022-10-20T22:44:08.001Z,9.63
2022-10-20T22:46:35.984Z,9.23
2022-10-20T22:49:07.177Z,9.18
2022-10-20T22:51:35.120Z,9.63
2022-10-20T22:54:03.056Z,10.07
2022-10-20T22:56:31.026Z,9.77
2022-10-20T22:58:58.938Z,9.52
2022-10-20T23:01:26.912Z,10.57
2022-10-20T23:03:54.912Z,9.70
2022-10-20T23:06:26.172Z,11.00
2022-10-20T23:08:57.934Z,9.18
2022-10-20T23:11:26.189Z,9.02
2022-10-20T23:13:54.259Z,9.20
2022-10-20T23:18:52.953Z,10.00
2022-10-20T23:21:20.852Z,9.02
2022-10-20T23:23:50.197Z,8.73
2022-10-20T23:26:18.188Z,9.18
2022-10-20T23:28:46.092Z,8.88
2022-10-20T23:31:15.782Z,8.32
2022-10-20T23:33:44.991Z,8.35
2022-10-20T23:36:13.930Z,8.40
2022-10-20T23:38:42.105Z,7.28
2022-10-20T23:41:11.871Z,8.38
2022-10-20T23:43:40.256Z,8.45
2022-10-20T23:46:08.799Z,8.27
2022-10-20T23:48:37.332Z,7.90
2022-10-20T23:51:05.664Z,7.70
2022-10-20T23:53:34.364Z,7.50
2022-10-20T23:56:02.299Z,7.72
2022-10-20T23:58:31.591Z,7.80
